sensor_id;sensor_type;location;lat;lon;timestamp;pressure;altitude;pressure_sealevel;temperature;humidity
10006;BME280;5042;42.626;23.382;2023-07-31T00:02:17;94053.28;;;21.67;100.00
10006;BME280;5042;42.626;23.382;2023-07-31T00:04:44;94058.06;;;21.65;100.00
10006;BME280;5042;42.626;23.382;2023-07-31T00:07:10;94062.84;;;21.63;100.00
10006;BME280;5042;42.626;23.382;2023-07-31T00:09:39;94061.78;;;21.69;100.00
10006;BME280;5042;42.626;23.382;2023-07-31T00:12:06;94067.41;;;21.72;100.00
10006;BME280;5042;42.626;23.382;2023-07-31T00:14:33;94065.53;;;21.78;100.00
10006;BME280;5042;42.626;23.382;2023-07-31T00:17:00;94069.28;;;21.77;100.00
10006;BME280;5042;42.626;23.382;2023-07-31T00:19:26;94073.53;;;21.68;100.00
10006;BME280;5042;42.626;23.382;2023-07-31T00:21:53;94071.34;;;21.39;100.00
10006;BME280;5042;42.626;23.382;2023-07-31T00:24:20;94068.88;;;21.12;100.00
10006;BME280;5042;42.626;23.382;2023-07-31T00:26:48;94069.59;;;20.97;100.00
10006;BME280;5042;42.626;23.382;2023-07-31T00:29:14;94066.84;;;20.71;100.00
10006;BME280;5042;42.626;23.382;2023-07-31T00:31:41;94060.06;;;20.48;100.00
10006;BME280;5042;42.626;23.382;2023-07-31T00:34:08;94056.34;;;20.54;100.00
10006;BME280;5042;42.626;23.382;2023-07-31T00:36:35;94047.06;;;20.57;100.00
10006;BME280;5042;42.626;23.382;2023-07-31T00:39:01;94048.13;;;20.56;100.00
10006;BME280;5042;42.626;23.382;2023-07-31T00:41:29;94044.09;;;20.53;100.00
10006;BME280;5042;42.626;23.382;2023-07-31T00:43:59;94041.50;;;20.59;100.00
10006;BME280;5042;42.626;23.382;2023-07-31T00:46:26;94038.47;;;20.50;100.00
10006;BME280;5042;42.626;23.382;2023-07-31T00:48:52;94032.75;;;20.73;100.00
10006;BME280;5042;42.626;23.382;2023-07-31T00:51:19;94035.13;;;20.60;100.00
10006;BME280;5042;42.626;23.382;2023-07-31T00:53:46;94033.97;;;20.50;100.00
10006;BME280;5042;42.626;23.382;2023-07-31T00:56:13;94034.25;;;20.54;100.00
10006;BME280;5042;42.626;23.382;2023-07-31T00:58:40;94041.78;;;20.62;100.00
10006;BME280;5042;42.626;23.382;2023-07-31T01:01:08;94042.03;;;20.56;100.00
10006;BME280;5042;42.626;23.382;2023-07-31T01:03:35;94044.97;;;20.64;100.00
10006;BME280;5042;42.626;23.382;2023-07-31T01:06:10;94037.03;;;20.74;100.00
10006;BME280;5042;42.626;23.382;2023-07-31T01:08:44;94029.59;;;20.82;100.00
10006;BME280;5042;42.626;23.382;2023-07-31T01:11:15;94016.81;;;20.79;100.00
10006;BME280;5042;42.626;23.382;2023-07-31T01:13:44;94033.88;;;20.88;100.00
10006;BME280;5042;42.626;23.382;2023-07-31T01:16:12;94034.41;;;20.85;100.00
10006;BME280;5042;42.626;23.382;2023-07-31T01:18:39;94024.59;;;20.95;100.00
10006;BME280;5042;42.626;23.382;2023-07-31T01:21:20;94021.63;;;20.92;100.00
10006;BME280;5042;42.626;23.382;2023-07-31T01:24:22;94022.66;;;20.81;100.00
10006;BME280;5042;42.626;23.382;2023-07-31T01:26:56;94010.13;;;20.76;100.00
10006;BME280;5042;42.626;23.382;2023-07-31T01:29:29;94023.50;;;20.81;100.00
10006;BME280;5042;42.626;23.382;2023-07-31T01:32:01;94007.22;;;20.78;100.00
10006;BME280;5042;42.626;23.382;2023-07-31T01:34:29;94020.84;;;20.86;100.00
10006;BME280;5042;42.626;23.382;2023-07-31T01:36:56;94014.44;;;20.92;100.00
10006;BME280;5042;42.626;23.382;2023-07-31T01:39:23;93999.22;;;20.83;100.00
10006;BME280;5042;42.626;23.382;2023-07-31T01:41:50;94005.34;;;20.83;100.00
10006;BME280;5042;42.626;23.382;2023-07-31T01:44:18;93996.31;;;20.84;100.00
10006;BME280;5042;42.626;23.382;2023-07-31T01:46:45;94000.00;;;20.73;100.00
10006;BME280;5042;42.626;23.382;2023-07-31T01:49:12;94007.72;;;20.69;100.00
10006;BME280;5042;42.626;23.382;2023-07-31T01:51:38;94006.41;;;20.72;100.00
10006;BME280;5042;42.626;23.382;2023-07-31T01:54:05;94010.38;;;20.69;100.00
10006;BME280;5042;42.626;23.382;2023-07-31T01:56:32;93999.69;;;20.59;100.00
10006;BME280;5042;42.626;23.382;2023-07-31T01:59:16;93996.19;;;20.53;100.00
10006;BME280;5042;42.626;23.382;2023-07-31T02:01:44;94021.28;;;20.63;100.00
10006;BME280;5042;42.626;23.382;2023-07-31T02:04:10;94020.97;;;20.59;100.00
10006;BME280;5042;42.626;23.382;2023-07-31T02:06:38;94020.47;;;20.62;100.00
10006;BME280;5042;42.626;23.382;2023-07-31T02:09:05;94015.41;;;20.61;100.00
10006;BME280;5042;42.626;23.382;2023-07-31T02:11:31;94021.28;;;20.68;100.00
10006;BME280;5042;42.626;23.382;2023-07-31T02:13:58;94021.56;;;20.71;100.00
10006;BME280;5042;42.626;23.382;2023-07-31T02:16:25;94028.50;;;20.67;100.00
10006;BME280;5042;42.626;23.382;2023-07-31T02:18:53;94031.09;;;20.57;100.00
10006;BME280;5042;42.626;23.382;2023-07-31T02:21:19;94025.47;;;20.53;100.00
10006;BME280;5042;42.626;23.382;2023-07-31T02:23:46;94032.97;;;20.57;100.00
10006;BME280;5042;42.626;23.382;2023-07-31T02:26:13;94035.13;;;20.60;100.00
10006;BME280;5042;42.626;23.382;2023-07-31T02:28:39;94030.28;;;20.57;100.00
10006;BME280;5042;42.626;23.382;2023-07-31T02:31:08;94040.72;;;20.63;100.00
10006;BME280;5042;42.626;23.382;2023-07-31T02:33:35;94036.47;;;20.67;100.00
10006;BME280;5042;42.626;23.382;2023-07-31T02:36:03;94034.09;;;20.71;100.00
10006;BME280;5042;42.626;23.382;2023-07-31T02:38:30;94035.41;;;20.68;100.00
10006;BME280;5042;42.626;23.382;2023-07-31T02:40:57;94032.22;;;20.71;100.00
10006;BME280;5042;42.626;23.382;2023-07-31T02:43:23;94031.44;;;20.76;100.00
10006;BME280;5042;42.626;23.382;2023-07-31T02:45:51;94031.19;;;20.83;100.00
10006;BME280;5042;42.626;23.382;2023-07-31T02:48:18;94033.59;;;20.84;100.00
10006;BME280;5042;42.626;23.382;2023-07-31T02:50:44;94021.06;;;20.80;100.00
10006;BME280;5042;42.626;23.382;2023-07-31T02:53:13;94032.81;;;20.89;100.00
10006;BME280;5042;42.626;23.382;2023-07-31T02:55:40;94038.47;;;20.98;100.00
10006;BME280;5042;42.626;23.382;2023-07-31T02:58:07;94033.88;;;20.88;100.00
10006;BME280;5042;42.626;23.382;2023-07-31T03:00:33;94040.81;;;20.89;100.00
10006;BME280;5042;42.626;23.382;2023-07-31T03:03:00;94047.25;;;20.93;100.00
10006;BME280;5042;42.626;23.382;2023-07-31T03:05:27;94038.16;;;20.94;100.00
10006;BME280;5042;42.626;23.382;2023-07-31T03:07:53;94045.06;;;20.90;100.00
10006;BME280;5042;42.626;23.382;2023-07-31T03:10:21;94048.81;;;20.94;100.00
10006;BME280;5042;42.626;23.382;2023-07-31T03:12:48;94035.22;;;20.90;100.00
10006;BME280;5042;42.626;23.382;2023-07-31T03:15:15;94041.91;;;20.93;100.00
10006;BME280;5042;42.626;23.382;2023-07-31T03:17:42;94041.91;;;20.93;100.00
10006;BME280;5042;42.626;23.382;2023-07-31T03:20:09;94040.59;;;20.95;100.00
10006;BME280;5042;42.626;23.382;2023-07-31T03:22:36;94042.97;;;20.97;100.00
10006;BME280;5042;42.626;23.382;2023-07-31T03:25:04;94051.50;;;20.99;100.00
10006;BME280;5042;42.626;23.382;2023-07-31T03:27:32;94054.72;;;21.01;100.00
10006;BME280;5042;42.626;23.382;2023-07-31T03:29:59;94054.19;;;21.04;100.00
10006;BME280;5042;42.626;23.382;2023-07-31T03:32:26;94054.19;;;21.04;100.00
10006;BME280;5042;42.626;23.382;2023-07-31T03:34:53;94061.91;;;21.06;100.00
10006;BME280;5042;42.626;23.382;2023-07-31T03:37:19;94058.44;;;21.00;100.00
10006;BME280;5042;42.626;23.382;2023-07-31T03:39:46;94062.19;;;21.09;100.00
10006;BME280;5042;42.626;23.382;2023-07-31T03:42:13;94057.41;;;21.16;100.00
10006;BME280;5042;42.626;23.382;2023-07-31T03:44:41;94054.72;;;21.11;100.00
10006;BME280;5042;42.626;23.382;2023-07-31T03:47:08;94065.16;;;21.23;100.00
10006;BME280;5042;42.626;23.382;2023-07-31T03:49:34;94061.44;;;21.24;100.00
10006;BME280;5042;42.626;23.382;2023-07-31T03:52:01;94065.44;;;21.27;100.00
10006;BME280;5042;42.626;23.382;2023-07-31T03:54:28;94065.16;;;21.23;100.00
10006;BME280;5042;42.626;23.382;2023-07-31T03:56:55;94068.09;;;21.22;100.00
10006;BME280;5042;42.626;23.382;2023-07-31T03:59:22;94073.69;;;21.30;100.00
10006;BME280;5042;42.626;23.382;2023-07-31T04:01:50;94075.56;;;21.25;100.00
10006;BME280;5042;42.626;23.382;2023-07-31T04:04:16;94078.78;;;21.27;100.00
10006;BME280;5042;42.626;23.382;2023-07-31T04:06:43;94075.56;;;21.25;100.00
10006;BME280;5042;42.626;23.382;2023-07-31T04:09:10;94086.22;;;21.25;100.00
10006;BME280;5042;42.626;23.382;2023-07-31T04:11:36;94087.31;;;21.24;100.00
10006;BME280;5042;42.626;23.382;2023-07-31T04:14:04;94092.34;;;21.20;100.00
10006;BME280;5042;42.626;23.382;2023-07-31T04:16:31;94085.69;;;21.28;100.00
10006;BME280;5042;42.626;23.382;2023-07-31T04:18:59;94091.56;;;21.25;100.00
10006;BME280;5042;42.626;23.382;2023-07-31T04:21:25;94090.47;;;21.26;100.00
10006;BME280;5042;42.626;23.382;2023-07-31T04:23:52;94082.75;;;21.19;100.00
10006;BME280;5042;42.626;23.382;2023-07-31T04:26:21;94082.22;;;21.22;100.00
10006;BME280;5042;42.626;23.382;2023-07-31T04:28:47;94086.22;;;21.25;100.00
10006;BME280;5042;42.626;23.382;2023-07-31T04:31:14;94086.50;;;21.28;100.00
10006;BME280;5042;42.626;23.382;2023-07-31T04:33:41;94090.53;;;21.31;100.00
10006;BME280;5042;42.626;23.382;2023-07-31T04:36:09;94099.03;;;21.33;100.00
10006;BME280;5042;42.626;23.382;2023-07-31T04:38:36;94090.81;;;21.45;100.00
10006;BME280;5042;42.626;23.382;2023-07-31T04:41:02;94088.19;;;21.50;100.00
10006;BME280;5042;42.626;23.382;2023-07-31T04:43:30;94083.13;;;21.53;100.00
10006;BME280;5042;42.626;23.382;2023-07-31T04:45:57;94079.38;;;21.49;100.00
10006;BME280;5042;42.626;23.382;2023-07-31T04:48:24;94085.53;;;21.55;100.00
10006;BME280;5042;42.626;23.382;2023-07-31T04:50:51;94084.19;;;21.63;100.00
10006;BME280;5042;42.626;23.382;2023-07-31T04:53:19;94087.41;;;21.65;100.00
10006;BME280;5042;42.626;23.382;2023-07-31T04:55:45;94082.31;;;21.63;100.00
10006;BME280;5042;42.626;23.382;2023-07-31T04:58:12;94084.19;;;21.57;100.00
10006;BME280;5042;42.626;23.382;2023-07-31T05:00:39;94083.13;;;21.64;100.00
10006;BME280;5042;42.626;23.382;2023-07-31T05:03:05;94080.19;;;21.75;100.00
10006;BME280;5042;42.626;23.382;2023-07-31T05:05:32;94081.53;;;21.98;100.00
10006;BME280;5042;42.626;23.382;2023-07-31T05:07:59;94080.47;;;22.30;100.00
10006;BME280;5042;42.626;23.382;2023-07-31T05:10:27;94082.00;;;22.72;100.00
10006;BME280;5042;42.626;23.382;2023-07-31T05:12:53;94087.16;;;23.23;100.00
10006;BME280;5042;42.626;23.382;2023-07-31T05:15:20;94081.97;;;23.42;100.00
10006;BME280;5042;42.626;23.382;2023-07-31T05:17:47;94082.50;;;23.89;100.00
10006;BME280;5042;42.626;23.382;2023-07-31T05:20:13;94086.94;;;24.33;100.00
10006;BME280;5042;42.626;23.382;2023-07-31T05:22:41;94082.44;;;24.58;100.00
10006;BME280;5042;42.626;23.382;2023-07-31T05:25:08;94082.97;;;24.84;100.00
10006;BME280;5042;42.626;23.382;2023-07-31T05:27:36;94086.66;;;25.12;100.00
10006;BME280;5042;42.626;23.382;2023-07-31T05:30:04;94088.81;;;25.53;100.00
10006;BME280;5042;42.626;23.382;2023-07-31T05:32:30;94087.50;;;26.07;100.00
10006;BME280;5042;42.626;23.382;2023-07-31T05:34:57;94089.44;;;26.20;100.00
10006;BME280;5042;42.626;23.382;2023-07-31T05:37:24;94091.50;;;26.10;100.00
10006;BME280;5042;42.626;23.382;2023-07-31T05:39:51;94086.28;;;25.99;100.00
10006;BME280;5042;42.626;23.382;2023-07-31T05:42:17;94088.53;;;26.11;100.00
10006;BME280;5042;42.626;23.382;2023-07-31T05:44:45;94083.97;;;25.93;100.00
10006;BME280;5042;42.626;23.382;2023-07-31T05:47:12;94082.13;;;26.07;100.00
10006;BME280;5042;42.626;23.382;2023-07-31T05:49:39;94090.38;;;25.97;100.00
10006;BME280;5042;42.626;23.382;2023-07-31T05:52:06;94086.69;;;26.26;100.00
10006;BME280;5042;42.626;23.382;2023-07-31T05:54:33;94091.06;;;26.35;100.00
10006;BME280;5042;42.626;23.382;2023-07-31T05:57:00;94083.72;;;26.41;100.00
10006;BME280;5042;42.626;23.382;2023-07-31T05:59:26;94102.47;;;26.46;100.00
10006;BME280;5042;42.626;23.382;2023-07-31T06:01:54;94093.06;;;26.30;100.00
10006;BME280;5042;42.626;23.382;2023-07-31T06:04:21;94097.97;;;26.09;100.00
10006;BME280;5042;42.626;23.382;2023-07-31T06:06:50;94103.41;;;25.85;100.00
10006;BME280;5042;42.626;23.382;2023-07-31T06:09:17;94107.84;;;25.56;100.00
10006;BME280;5042;42.626;23.382;2023-07-31T06:11:45;94095.69;;;25.21;100.00
10006;BME280;5042;42.626;23.382;2023-07-31T06:14:11;94100.00;;;25.17;100.00
10006;BME280;5042;42.626;23.382;2023-07-31T06:16:38;94096.16;;;24.80;100.00
10006;BME280;5042;42.626;23.382;2023-07-31T06:19:06;94096.66;;;25.06;100.00
10006;BME280;5042;42.626;23.382;2023-07-31T06:21:33;94095.47;;;25.36;100.00
10006;BME280;5042;42.626;23.382;2023-07-31T06:24:02;94098.00;;;25.90;100.00
10006;BME280;5042;42.626;23.382;2023-07-31T06:26:29;94095.38;;;26.36;100.00
10006;BME280;5042;42.626;23.382;2023-07-31T06:28:56;94104.31;;;26.78;100.00
10006;BME280;5042;42.626;23.382;2023-07-31T06:31:22;94105.13;;;26.93;100.00
10006;BME280;5042;42.626;23.382;2023-07-31T06:33:49;94114.88;;;26.75;100.00
10006;BME280;5042;42.626;23.382;2023-07-31T06:36:17;94101.41;;;26.28;98.09
10006;BME280;5042;42.626;23.382;2023-07-31T06:38:44;94093.47;;;26.04;97.33
10006;BME280;5042;42.626;23.382;2023-07-31T06:41:11;94090.56;;;26.00;100.00
10006;BME280;5042;42.626;23.382;2023-07-31T06:43:37;94104.03;;;26.47;99.37
10006;BME280;5042;42.626;23.382;2023-07-31T06:46:05;94105.34;;;26.96;94.66
10006;BME280;5042;42.626;23.382;2023-07-31T06:48:32;94103.03;;;27.31;95.05
10006;BME280;5042;42.626;23.382;2023-07-31T06:50:59;94098.63;;;27.63;93.49
10006;BME280;5042;42.626;23.382;2023-07-31T06:53:28;94104.53;;;27.87;90.20
10006;BME280;5042;42.626;23.382;2023-07-31T06:55:55;94113.53;;;27.83;91.52
10006;BME280;5042;42.626;23.382;2023-07-31T06:58:21;94111.59;;;27.97;90.05
10006;BME280;5042;42.626;23.382;2023-07-31T07:00:48;94111.63;;;27.83;88.21
10006;BME280;5042;42.626;23.382;2023-07-31T07:03:17;94121.63;;;27.83;90.84
10006;BME280;5042;42.626;23.382;2023-07-31T07:05:44;94112.69;;;27.18;91.14
10006;BME280;5042;42.626;23.382;2023-07-31T07:08:11;94106.91;;;26.97;95.34
10006;BME280;5042;42.626;23.382;2023-07-31T07:10:39;94099.16;;;26.96;95.62
10006;BME280;5042;42.626;23.382;2023-07-31T07:13:05;94100.16;;;27.27;94.17
10006;BME280;5042;42.626;23.382;2023-07-31T07:15:32;94104.34;;;27.34;93.11
10006;BME280;5042;42.626;23.382;2023-07-31T07:17:59;94103.38;;;27.66;96.18
10006;BME280;5042;42.626;23.382;2023-07-31T07:20:25;94108.97;;;28.06;89.46
10006;BME280;5042;42.626;23.382;2023-07-31T07:22:52;94098.25;;;28.37;88.73
10006;BME280;5042;42.626;23.382;2023-07-31T07:25:19;94092.41;;;28.44;85.86
10006;BME280;5042;42.626;23.382;2023-07-31T07:27:47;94122.69;;;28.41;83.24
10006;BME280;5042;42.626;23.382;2023-07-31T07:30:13;94108.69;;;28.07;85.18
10006;BME280;5042;42.626;23.382;2023-07-31T07:32:40;94114.69;;;28.27;83.57
10006;BME280;5042;42.626;23.382;2023-07-31T07:35:07;94116.63;;;28.12;85.15
10006;BME280;5042;42.626;23.382;2023-07-31T07:37:34;94124.53;;;28.09;85.56
10006;BME280;5042;42.626;23.382;2023-07-31T07:40:01;94129.19;;;28.40;80.91
10006;BME280;5042;42.626;23.382;2023-07-31T07:42:27;94133.19;;;28.73;82.20
10006;BME280;5042;42.626;23.382;2023-07-31T07:44:55;94136.44;;;29.15;80.57
10006;BME280;5042;42.626;23.382;2023-07-31T07:47:22;94146.16;;;28.94;83.47
10006;BME280;5042;42.626;23.382;2023-07-31T07:49:50;94151.41;;;29.30;75.38
10006;BME280;5042;42.626;23.382;2023-07-31T07:52:17;94139.50;;;29.23;76.18
10006;BME280;5042;42.626;23.382;2023-07-31T07:54:43;94133.59;;;29.21;75.56
10006;BME280;5042;42.626;23.382;2023-07-31T07:57:10;94143.88;;;29.50;80.85
10006;BME280;5042;42.626;23.382;2023-07-31T07:59:37;94154.06;;;29.62;77.08
10006;BME280;5042;42.626;23.382;2023-07-31T08:02:05;94154.63;;;29.41;75.04
10006;BME280;5042;42.626;23.382;2023-07-31T08:04:32;94152.84;;;28.96;75.34
10006;BME280;5042;42.626;23.382;2023-07-31T08:06:58;94142.63;;;29.16;76.05
10006;BME280;5042;42.626;23.382;2023-07-31T08:09:25;94141.06;;;29.72;76.96
10006;BME280;5042;42.626;23.382;2023-07-31T08:11:52;94139.19;;;29.99;73.00
10006;BME280;5042;42.626;23.382;2023-07-31T08:14:19;94133.53;;;29.43;77.84
10006;BME280;5042;42.626;23.382;2023-07-31T08:16:46;94144.41;;;29.21;74.67
10006;BME280;5042;42.626;23.382;2023-07-31T08:19:14;94142.28;;;28.78;75.07
10006;BME280;5042;42.626;23.382;2023-07-31T08:21:41;94138.66;;;28.51;80.13
10006;BME280;5042;42.626;23.382;2023-07-31T08:24:07;94142.50;;;28.90;80.63
10006;BME280;5042;42.626;23.382;2023-07-31T08:26:34;94138.50;;;28.87;74.89
10006;BME280;5042;42.626;23.382;2023-07-31T08:29:01;94135.16;;;29.13;74.58
10006;BME280;5042;42.626;23.382;2023-07-31T08:31:27;94143.16;;;29.27;72.79
10006;BME280;5042;42.626;23.382;2023-07-31T08:33:55;94133.53;;;29.43;71.11
10006;BME280;5042;42.626;23.382;2023-07-31T08:36:23;94139.91;;;29.65;74.47
10006;BME280;5042;42.626;23.382;2023-07-31T08:38:50;94134.03;;;29.63;73.86
10006;BME280;5042;42.626;23.382;2023-07-31T08:41:17;94130.50;;;29.45;68.72
10006;BME280;5042;42.626;23.382;2023-07-31T08:43:44;94126.72;;;29.54;77.71
10006;BME280;5042;42.626;23.382;2023-07-31T08:46:12;94140.91;;;29.69;68.48
10006;BME280;5042;42.626;23.382;2023-07-31T08:48:41;94138.00;;;29.65;69.46
10006;BME280;5042;42.626;23.382;2023-07-31T08:51:08;94137.13;;;29.96;74.14
10006;BME280;5042;42.626;23.382;2023-07-31T08:53:36;94142.09;;;30.29;69.26
10006;BME280;5042;42.626;23.382;2023-07-31T08:56:03;94143.50;;;30.35;72.17
10006;BME280;5042;42.626;23.382;2023-07-31T08:58:32;94088.31;;;30.10;68.87
10006;BME280;5042;42.626;23.382;2023-07-31T09:01:00;94137.94;;;30.05;66.69
10006;BME280;5042;42.626;23.382;2023-07-31T09:03:28;94142.88;;;30.29;65.28
10006;BME280;5042;42.626;23.382;2023-07-31T09:05:56;94115.97;;;30.41;65.70
10006;BME280;5042;42.626;23.382;2023-07-31T09:08:26;94138.22;;;30.04;64.40
10006;BME280;5042;42.626;23.382;2023-07-31T09:10:59;94146.38;;;30.38;65.23
10006;BME280;5042;42.626;23.382;2023-07-31T09:13:27;94138.91;;;30.35;61.66
10006;BME280;5042;42.626;23.382;2023-07-31T09:15:54;94131.06;;;30.25;66.88
10006;BME280;5042;42.626;23.382;2023-07-31T09:18:21;94140.00;;;29.99;65.30
10006;BME280;5042;42.626;23.382;2023-07-31T09:21:00;94136.38;;;30.30;66.24
10006;BME280;5042;42.626;23.382;2023-07-31T09:23:40;94128.63;;;30.84;63.03
10006;BME280;5042;42.626;23.382;2023-07-31T09:26:09;94127.63;;;30.98;62.48
10006;BME280;5042;42.626;23.382;2023-07-31T09:28:36;94127.28;;;31.08;58.03
10006;BME280;5042;42.626;23.382;2023-07-31T09:31:03;94123.06;;;30.90;60.66
10006;BME280;5042;42.626;23.382;2023-07-31T09:33:29;94120.66;;;30.88;64.04
10006;BME280;5042;42.626;23.382;2023-07-31T09:35:58;94119.69;;;30.93;58.31
10006;BME280;5042;42.626;23.382;2023-07-31T09:38:25;94117.56;;;31.07;58.72
10006;BME280;5042;42.626;23.382;2023-07-31T09:40:52;94116.97;;;31.01;58.67
10006;BME280;5042;42.626;23.382;2023-07-31T09:43:21;94116.56;;;30.73;59.20
10006;BME280;5042;42.626;23.382;2023-07-31T09:45:54;94118.44;;;30.81;68.00
10006;BME280;5042;42.626;23.382;2023-07-31T09:48:23;94089.94;;;30.84;58.84
10006;BME280;5042;42.626;23.382;2023-07-31T09:50:53;94102.69;;;30.92;61.41
10006;BME280;5042;42.626;23.382;2023-07-31T09:53:28;94100.44;;;31.24;61.55
10006;BME280;5042;42.626;23.382;2023-07-31T09:55:58;94108.22;;;30.96;60.54
10006;BME280;5042;42.626;23.382;2023-07-31T09:58:28;94104.13;;;30.90;57.75
10006;BME280;5042;42.626;23.382;2023-07-31T10:00:57;94109.97;;;30.92;58.32
10006;BME280;5042;42.626;23.382;2023-07-31T10:03:25;94112.16;;;30.42;57.83
10006;BME280;5042;42.626;23.382;2023-07-31T10:05:53;94004.22;;;29.42;60.49
10006;BME280;5042;42.626;23.382;2023-07-31T10:08:24;94105.47;;;29.96;61.18
10006;BME280;5042;42.626;23.382;2023-07-31T10:10:55;94107.69;;;29.94;61.10
10006;BME280;5042;42.626;23.382;2023-07-31T10:13:27;94103.34;;;29.58;62.87
10006;BME280;5042;42.626;23.382;2023-07-31T10:15:58;94109.16;;;29.83;64.80
10006;BME280;5042;42.626;23.382;2023-07-31T10:18:26;94108.03;;;30.28;62.32
10006;BME280;5042;42.626;23.382;2023-07-31T10:20:54;94094.66;;;30.22;60.84
10006;BME280;5042;42.626;23.382;2023-07-31T10:23:22;94098.47;;;30.21;58.95
10006;BME280;5042;42.626;23.382;2023-07-31T10:25:50;94105.00;;;30.12;63.92
10006;BME280;5042;42.626;23.382;2023-07-31T10:28:20;94093.56;;;29.97;62.82
10006;BME280;5042;42.626;23.382;2023-07-31T10:30:49;94103.59;;;30.14;61.87
10006;BME280;5042;42.626;23.382;2023-07-31T10:33:17;94096.56;;;30.39;63.37
10006;BME280;5042;42.626;23.382;2023-07-31T10:35:46;94078.03;;;30.68;61.40
10006;BME280;5042;42.626;23.382;2023-07-31T10:38:13;94088.38;;;30.74;56.99
10006;BME280;5042;42.626;23.382;2023-07-31T10:40:40;94066.94;;;30.60;61.69
10006;BME280;5042;42.626;23.382;2023-07-31T10:43:07;94087.69;;;30.95;57.78
10006;BME280;5042;42.626;23.382;2023-07-31T10:45:37;94068.78;;;30.86;57.59
10006;BME280;5042;42.626;23.382;2023-07-31T10:48:06;94078.69;;;31.12;53.04
10006;BME280;5042;42.626;23.382;2023-07-31T10:50:37;94082.78;;;31.18;57.41
10006;BME280;5042;42.626;23.382;2023-07-31T10:53:04;94076.59;;;30.88;57.11
10006;BME280;5042;42.626;23.382;2023-07-31T10:55:33;94086.31;;;30.71;56.54
10006;BME280;5042;42.626;23.382;2023-07-31T10:58:06;94079.09;;;30.28;55.92
10006;BME280;5042;42.626;23.382;2023-07-31T11:00:33;93998.50;;;29.60;58.43
10006;BME280;5042;42.626;23.382;2023-07-31T11:03:02;94067.31;;;30.15;53.67
10006;BME280;5042;42.626;23.382;2023-07-31T11:05:46;94064.63;;;29.89;59.67
10006;BME280;5042;42.626;23.382;2023-07-31T11:08:15;94070.31;;;30.22;58.61
10006;BME280;5042;42.626;23.382;2023-07-31T11:10:42;94041.03;;;30.51;54.90
10006;BME280;5042;42.626;23.382;2023-07-31T11:13:09;94068.47;;;30.70;51.37
10006;BME280;5042;42.626;23.382;2023-07-31T11:15:37;94066.53;;;30.88;52.40
10006;BME280;5042;42.626;23.382;2023-07-31T11:18:04;94065.38;;;30.98;55.70
10006;BME280;5042;42.626;23.382;2023-07-31T11:20:31;94067.78;;;30.99;52.29
10006;BME280;5042;42.626;23.382;2023-07-31T11:23:00;94066.22;;;30.90;52.65
10006;BME280;5042;42.626;23.382;2023-07-31T11:25:29;94065.97;;;30.65;50.64
10006;BME280;5042;42.626;23.382;2023-07-31T11:27:56;94050.56;;;30.57;54.14
10006;BME280;5042;42.626;23.382;2023-07-31T11:30:23;94064.41;;;30.55;54.80
10006;BME280;5042;42.626;23.382;2023-07-31T11:32:50;94056.94;;;30.43;53.67
10006;BME280;5042;42.626;23.382;2023-07-31T11:35:17;94061.47;;;30.05;51.47
10006;BME280;5042;42.626;23.382;2023-07-31T11:37:44;94061.28;;;30.10;55.90
10006;BME280;5042;42.626;23.382;2023-07-31T11:40:12;94055.38;;;30.25;53.24
10006;BME280;5042;42.626;23.382;2023-07-31T11:42:39;94056.66;;;30.19;51.82
10006;BME280;5042;42.626;23.382;2023-07-31T11:45:08;94061.94;;;29.98;51.94
10006;BME280;5042;42.626;23.382;2023-07-31T11:47:36;94055.72;;;29.80;50.81
10006;BME280;5042;42.626;23.382;2023-07-31T11:50:06;94028.38;;;29.55;53.77
10006;BME280;5042;42.626;23.382;2023-07-31T11:52:39;94022.81;;;29.52;54.55
10006;BME280;5042;42.626;23.382;2023-07-31T11:55:08;94038.66;;;29.27;54.86
10006;BME280;5042;42.626;23.382;2023-07-31T11:57:39;94044.13;;;29.62;57.16
10006;BME280;5042;42.626;23.382;2023-07-31T12:00:07;94044.13;;;29.62;55.14
10006;BME280;5042;42.626;23.382;2023-07-31T12:02:36;94042.47;;;29.35;56.99
10006;BME280;5042;42.626;23.382;2023-07-31T12:05:05;94042.31;;;29.23;56.44
10006;BME280;5042;42.626;23.382;2023-07-31T12:07:43;94040.94;;;29.43;59.63
10006;BME280;5042;42.626;23.382;2023-07-31T12:10:11;94037.88;;;29.44;54.34
10006;BME280;5042;42.626;23.382;2023-07-31T12:12:39;94035.69;;;29.64;55.32
10006;BME280;5042;42.626;23.382;2023-07-31T12:15:14;94035.69;;;29.64;54.84
10006;BME280;5042;42.626;23.382;2023-07-31T12:17:41;94022.03;;;29.86;53.14
10006;BME280;5042;42.626;23.382;2023-07-31T12:20:09;94021.56;;;29.75;52.14
10006;BME280;5042;42.626;23.382;2023-07-31T12:22:36;94023.63;;;29.87;53.79
10006;BME280;5042;42.626;23.382;2023-07-31T12:25:03;94031.25;;;30.02;52.36
10006;BME280;5042;42.626;23.382;2023-07-31T12:27:33;94017.91;;;29.80;52.09
10006;BME280;5042;42.626;23.382;2023-07-31T12:30:01;94024.41;;;30.14;52.59
10006;BME280;5042;42.626;23.382;2023-07-31T12:32:30;94024.22;;;30.19;51.49
10006;BME280;5042;42.626;23.382;2023-07-31T12:34:59;94027.78;;;29.67;51.85
10006;BME280;5042;42.626;23.382;2023-07-31T12:37:26;94019.78;;;29.53;52.97
10006;BME280;5042;42.626;23.382;2023-07-31T12:39:53;94012.00;;;29.34;53.97
10006;BME280;5042;42.626;23.382;2023-07-31T12:42:20;94012.19;;;29.38;57.40
10006;BME280;5042;42.626;23.382;2023-07-31T12:44:47;94022.16;;;29.46;56.70
10006;BME280;5042;42.626;23.382;2023-07-31T12:47:15;94023.91;;;29.42;57.57
10006;BME280;5042;42.626;23.382;2023-07-31T12:49:41;94017.25;;;29.31;58.11
10006;BME280;5042;42.626;23.382;2023-07-31T12:52:08;94008.72;;;28.89;57.58
10006;BME280;5042;42.626;23.382;2023-07-31T12:54:35;94005.19;;;28.80;55.47
10006;BME280;5042;42.626;23.382;2023-07-31T12:57:01;94001.81;;;28.65;58.77
10006;BME280;5042;42.626;23.382;2023-07-31T12:59:28;93996.28;;;28.62;58.54